x

Nantucket Sound (44020) Wave Buoy

11:50pm - Sun 19th Nov 2017 All times are EST. -5 hours from GMT.

  • Sig Wave height 3.9ft
  • Swell Direction
  • Peak Period 4s
  • Average Period 4s
  • Wind
    27mph, 31mph gusts
  • Sea Temp 50°f
  • Air Temp 43°f
  • Sea Pressure 1004mb
  • Nantucket Sound
  • Nantucket Sound

More Historic Weather Station data

Upgrade to MSW Pro to gain access to the past 30 days of data for over 8000 Wavebouys and Weather Stations around the globe.

Join

Comparision Forecast

View Surf forecast
   
Sun 11/19 11:50pm 4ft 4s 4s 27 31 mph 1004mb 50f 43f
10:50pm 4ft 4s 4s 27 34 mph 1003.5mb 50f 43f
9:50pm 4ft 5s 4s 29 34 mph 1002.9mb 50f 43f
8:50pm 4ft 4s 4s 29 36 mph 1002mb 50f 43f
7:50pm 4.5ft 5s 4s 31 38 mph 1000.8mb 50f 44f
6:50pm 3.5ft 5s 4s 29 36 mph 999.9mb 50f 44f
5:50pm 4ft 5s 4s 34 40 mph 998.3mb 49f 46f
4:50pm 4.5ft 5s 4s 29 38 mph 996mb 49f 48f
3:50pm 4.5ft 5s 4s 31 36 mph 994.3mb 50f 49f
2:50pm 4.5ft 5s 5s 29 38 mph 992.3mb 50f 51f
1:50pm 4.5ft 5s 4s 36 43 mph 989.6mb 51f 52f
12:50pm 4ft 5s 4s 29 38 mph 988.9mb 51f 54f
11:50am 4ft 4s 4s 27 31 mph 988.8mb 51f 57f
10:50am 3.5ft 4s 4s 27 29 mph 989.4mb 51f 56f
9:50am 3.5ft 4s 4s 27 31 mph 990.7mb 51f 56f
8:50am 3.5ft 4s 4s 27 31 mph 991mb 50f 57f
7:50am 2.5ft 3s 3s 25 27 mph 991.8mb 50f 57f
6:50am 3ft 4s 3s 22 25 mph 992.8mb 49f 57f
5:50am 2.5ft 4s 3s 22 27 mph 993.6mb 49f 57f
4:50am 3ft 4s 4s 22 27 mph 994.5mb 49f 57f
3:50am 2.5ft 3s 3s 27 31 mph 995.1mb 49f 57f
2:50am 2.5ft 4s 4s 20 25 mph 996.5mb 49f 56f
1:50am 2.5ft 4s 3s 25 27 mph 997.8mb 49f 57f
12:50am 2ft 3s 3s 20 25 mph 998.9mb 50f 56f
Sat 11/18 11:50pm 1.6ft 3s 3s 16 18 mph 1000.7mb 50f 55f
10:50pm 1.6ft 3s 3s 13 16 mph 1001.9mb 50f 55f
9:50pm 1.3ft 3s 3s 20 25 mph 1002.2mb 50f 55f
8:50pm 1.3ft 3s 3s 13 16 mph 1003.8mb 49f 54f
7:50pm 1.3ft 3s 3s 16 16 mph 1004.8mb 49f 53f
6:50pm 1.3ft 3s 3s 16 18 mph 1005.7mb 49f 53f
5:50pm 1.3ft 3s 3s 13 13 mph 1006.7mb 49f 52f
4:50pm 1ft 2s 3s 16 18 mph 1006.8mb 49f 52f
3:50pm 1ft 3s 3s 11 13 mph 1008.2mb 49f 51f
2:50pm 0.7ft  -  3s 13 16 mph 1009.2mb 49f 51f
1:50pm 1ft 3s 3s 9 13 mph 1010.2mb 49f 49f
12:50pm 0.7ft  -  4s 13 16 mph 1011.1mb 49f 49f
11:50am 0.7ft  -  4s 4 4 mph 1012.3mb 50f 46f
10:50am 1ft 5s 4s 4 4 mph 1013.7mb 50f 44f
9:50am 0.7ft  -  4s 2 4 mph 1014.5mb 49f 45f
8:50am 0.7ft  -  3s 4 4 mph 1014.9mb 49f 45f
7:50am 0.7ft  -  3s 7 9 mph 1015.8mb 49f 42f
6:50am 1ft 2s 3s 9 11 mph 1015.6mb 48f 41f
5:50am 1ft 3s 3s 11 13 mph 1015.5mb 48f 40f
4:50am 1.3ft 3s 3s 11 16 mph 1014.7mb 48f 39f
3:50am 2ft 4s 3s 13 20 mph 1015.2mb 48f 38f
2:50am 2.5ft 4s 4s 16 20 mph 1015.6mb 48f 38f
1:50am 2.5ft 4s 4s 20 25 mph 1015.8mb 49f 39f
12:50am 2ft 4s 4s 18 22 mph 1015.1mb 49f 39f
Fri 11/17 11:50pm 2.5ft 4s 3s 22 27 mph 1014.9mb 50f 39f
10:50pm 2.5ft 4s 3s 22 27 mph 1014.3mb 50f 40f
9:50pm 2.5ft 3s 4s 20 27 mph 1014.6mb 50f 40f
8:50pm 2.5ft 3s 3s 25 31 mph 1014.9mb 50f 42f
7:50pm 2.5ft 3s 3s 22 27 mph 1014.5mb 50f 43f
6:50pm 2.5ft 4s 3s 22 27 mph 1014.2mb 49f 43f
5:50pm 2.5ft 4s 3s 22 29 mph 1014mb 49f 44f
4:50pm 2.5ft 4s 4s 25 29 mph 1012.9mb 49f 44f
3:50pm 3.5ft 5s 4s 25 27 mph 1012.1mb 49f 45f
2:50pm 3.5ft 4s 4s 22 27 mph 1011.2mb 49f 44f
1:50pm 3.5ft 5s 4s 22 27 mph 1010.6mb 49f 44f
12:50pm 4ft 5s 4s 22 29 mph 1010.4mb 49f 43f
11:50am 3.5ft 5s 4s 25 29 mph 1010.4mb 50f 42f
10:50am 4ft 5s 4s 27 31 mph 1010.5mb 51f 42f
9:50am 3.5ft 4s 4s 29 36 mph 1010.4mb 51f 42f
8:50am 3.5ft 4s 4s 27 31 mph 1010.1mb 51f 42f
7:50am 3.5ft 4s 4s 29 34 mph 1009.4mb 50f 42f
6:50am 3.5ft 4s 4s 29 36 mph 1008.5mb 50f 43f
5:50am 3.5ft 4s 4s 29 36 mph 1007.4mb 50f 44f
4:50am 3.5ft 5s 4s 29 38 mph 1006.7mb 49f 44f
3:50am 3.5ft 5s 4s 29 36 mph 1006.3mb 49f 44f
2:50am 3.5ft 5s 4s 27 38 mph 1006mb 49f 45f
1:50am 3.5ft 5s 4s 27 34 mph 1005.7mb 50f 46f
12:50am 4ft 5s 4s 25 31 mph 1005.5mb 50f 47f
Thu 11/16 11:50pm 3.5ft 5s 4s 29 36 mph 1005mb 50f 47f
10:50pm 2.5ft 4s 4s 27 34 mph 1004.9mb 51f 48f
9:50pm 2.5ft 4s 4s 22 27 mph 1005.5mb 51f 48f
8:50pm 2.5ft 4s 3s 22 27 mph 1005.9mb 51f 49f
7:50pm 1.6ft 3s 3s 29 34 mph 1005mb 51f 50f
6:50pm 1.6ft 3s 3s 16 18 mph 1005.3mb 50f 50f
5:50pm 2.5ft 3s 3s 16 16 mph 1005.3mb 50f 49f
4:50pm 2.5ft 3s 3s 20 25 mph 1003.9mb 50f 49f
3:50pm 2.5ft 5s 4s 13 16 mph 1003.1mb 50f 52f
2:50pm 3ft 4s 4s 20 25 mph 1003.4mb 50f 50f
1:50pm 3ft 4s 4s 25 34 mph 1004.7mb 50f 50f
12:50pm 2.5ft 4s 4s 20 25 mph 1007.3mb 50f 49f
10:50am 3ft 4s 4s 20 25 mph 1011.9mb 51f 49f
9:50am 2.5ft 3s 4s 20 25 mph 1013mb 51f 49f
8:50am 2.5ft 3s 4s 20 25 mph 1014.2mb 51f 48f
7:50am 1.6ft 4s 4s 22 25 mph 1014.7mb 51f 48f
6:50am 1.6ft 4s 4s 18 20 mph 1015.6mb 51f 48f